Time;durP1;ratioP1;P1;durP2;ratioP2;P2;SDS_P1;SDS_P2;PMS_P1;PMS_P2;Temp;Humidity;BMP_temperature;BMP_pressure;BME280_temperature;BME280_humidity;BME280_pressure;Samples;Min_cycle;Max_cycle;Signal;HPM_P1;HPM_P2
2022/01/16 00:00:09;;;;;;;13.02;8.90;;;6.40;79.40;;;;;;5054520;28;20028;-85
2022/01/16 00:05:05;;;;;;;13.85;9.65;;;6.40;79.40;;;;;;5049050;28;20354;-86
2022/01/16 00:07:31;;;;;;;14.02;9.80;;;6.40;79.40;;;;;;5038325;28;20130;-85
2022/01/16 00:09:57;;;;;;;14.02;9.30;;;6.40;79.40;;;;;;5042984;28;20029;-85
2022/01/16 00:12:23;;;;;;;15.18;10.00;;;6.40;79.40;;;;;;5054083;28;20038;-86
2022/01/16 00:14:52;;;;;;;14.10;9.32;;;6.40;79.40;;;;;;5033031;28;20075;-85
2022/01/16 00:17:21;;;;;;;16.58;10.77;;;6.40;79.40;;;;;;5041503;28;20441;-85
2022/01/16 00:19:46;;;;;;;15.30;9.48;;;6.40;79.40;;;;;;5043777;28;20024;-85
2022/01/16 00:22:15;;;;;;;15.23;10.73;;;6.40;79.40;;;;;;5057171;28;20385;-86
2022/01/16 00:24:41;;;;;;;14.68;9.70;;;6.40;79.50;;;;;;5021738;28;20029;-85
2022/01/16 00:27:07;;;;;;;14.30;9.63;;;6.40;79.40;;;;;;5054563;28;20040;-85
2022/01/16 00:29:34;;;;;;;16.05;10.05;;;6.40;79.40;;;;;;5033215;28;20033;-85
2022/01/16 00:31:59;;;;;;;15.77;10.18;;;6.40;79.40;;;;;;5047543;28;20063;-85
2022/01/16 00:34:25;;;;;;;14.80;9.65;;;6.40;79.40;;;;;;5038545;28;20056;-85
2022/01/16 00:36:51;;;;;;;15.18;9.57;;;6.40;79.40;;;;;;5058196;28;20032;-85
2022/01/16 00:39:17;;;;;;;15.95;10.93;;;6.40;79.40;;;;;;5034013;28;20021;-85
2022/01/16 00:41:43;;;;;;;16.38;10.35;;;6.40;79.40;;;;;;5044165;28;20386;-85
2022/01/16 00:44:10;;;;;;;15.07;10.45;;;6.40;79.50;;;;;;5049929;28;20357;-85
2022/01/16 00:46:36;;;;;;;16.65;10.18;;;6.30;79.40;;;;;;5024427;28;20086;-85
2022/01/16 00:49:02;;;;;;;15.23;10.13;;;6.30;79.40;;;;;;5046969;28;20044;-85
2022/01/16 00:51:28;;;;;;;14.70;9.68;;;6.30;79.40;;;;;;5060051;28;20186;-85
2022/01/16 00:53:57;;;;;;;16.23;10.48;;;6.40;79.40;;;;;;5045610;28;20028;-85
2022/01/16 00:56:23;;;;;;;14.55;9.80;;;6.30;79.40;;;;;;5029892;28;20054;-85
2022/01/16 00:58:49;;;;;;;16.48;10.05;;;6.30;79.40;;;;;;5038311;28;20112;-85
2022/01/16 01:01:18;;;;;;;15.48;10.50;;;6.30;79.40;;;;;;5006005;28;20116;-86
2022/01/16 01:03:44;;;;;;;14.90;10.38;;;6.30;79.40;;;;;;5049050;28;20031;-85
2022/01/16 01:06:12;;;;;;;16.30;10.38;;;6.30;79.40;;;;;;5039902;28;20131;-85
2022/01/16 01:08:38;;;;;;;17.05;11.20;;;6.30;79.50;;;;;;5059534;28;20043;-85
2022/01/16 01:11:08;;;;;;;15.20;10.38;;;6.30;79.40;;;;;;5049166;28;20036;-85
2022/01/16 01:13:55;;;;;;;15.52;10.07;;;6.30;79.40;;;;;;5045260;28;20021;-85
2022/01/16 01:16:20;;;;;;;16.13;10.27;;;6.30;79.40;;;;;;5082961;28;20089;-85
2022/01/16 01:18:46;;;;;;;14.25;9.90;;;6.30;79.40;;;;;;5059476;28;20048;-85
2022/01/16 01:21:28;;;;;;;17.58;11.23;;;6.30;79.40;;;;;;5041717;28;20462;-85
2022/01/16 01:23:59;;;;;;;15.82;10.35;;;6.30;79.40;;;;;;5046085;28;20086;-85
2022/01/16 01:26:31;;;;;;;14.13;9.60;;;6.30;79.40;;;;;;5036762;28;20083;-85
2022/01/16 01:28:57;;;;;;;15.10;9.90;;;6.30;79.40;;;;;;5079824;28;20032;-85
2022/01/16 01:31:25;;;;;;;15.82;10.25;;;6.30;79.50;;;;;;5050753;28;20486;-85
2022/01/16 01:33:51;;;;;;;13.90;10.05;;;6.30;79.50;;;;;;5051507;28;20039;-85
2022/01/16 01:36:16;;;;;;;14.70;9.88;;;6.30;79.50;;;;;;5057345;28;20455;-85
2022/01/16 01:38:42;;;;;;;16.17;10.40;;;6.30;79.50;;;;;;5022824;28;20033;-85
2022/01/16 01:41:08;;;;;;;16.50;10.55;;;6.30;79.50;;;;;;5049410;28;20029;-85
2022/01/16 01:51:42;;;;;;;14.95;9.27;;;6.30;79.50;;;;;;5060557;28;20076;-85
2022/01/16 01:54:08;;;;;;;15.38;9.95;;;6.20;79.40;;;;;;5046190;28;20032;-85
2022/01/16 01:56:37;;;;;;;13.40;9.38;;;6.20;79.40;;;;;;5038241;28;20145;-84
2022/01/16 01:59:03;;;;;;;14.70;10.02;;;6.20;79.50;;;;;;5038458;28;20049;-85
2022/01/16 02:01:31;;;;;;;12.63;9.23;;;6.20;79.50;;;;;;5010421;28;20020;-86
2022/01/16 02:03:57;;;;;;;14.93;9.95;;;6.20;79.50;;;;;;5053416;28;20079;-85
2022/01/16 02:06:25;;;;;;;17.23;10.40;;;6.20;79.50;;;;;;5040418;28;20040;-85
2022/01/16 02:08:57;;;;;;;15.38;10.02;;;6.20;79.50;;;;;;5033202;28;20056;-86
2022/01/16 02:11:29;;;;;;;15.00;10.32;;;6.20;79.50;;;;;;5057873;28;20031;-85
2022/01/16 02:14:09;;;;;;;14.55;9.95;;;6.20;79.50;;;;;;5038619;28;20020;-85
2022/01/16 02:28:24;;;;;;;14.73;9.60;;;6.20;79.60;;;;;;5044385;28;20045;-85
2022/01/16 02:34:30;;;;;;;13.23;9.43;;;6.10;80.10;;;;;;5072112;28;20021;-85
2022/01/16 02:36:27;;;;;;;13.27;8.45;;;6.10;79.50;;;;;;5056152;28;20434;-85
2022/01/16 02:39:16;;;;;;;13.05;9.30;;;6.10;79.50;;;;;;5045765;28;20021;-84
2022/01/16 02:41:44;;;;;;;14.15;9.20;;;6.10;79.50;;;;;;5048431;28;20461;-84
2022/01/16 02:44:21;;;;;;;11.95;8.50;;;6.10;79.50;;;;;;5048504;28;20020;-85
2022/01/16 02:46:48;;;;;;;14.23;8.98;;;6.10;79.50;;;;;;5053535;28;20134;-85
2022/01/16 02:49:18;;;;;;;12.95;9.07;;;6.10;79.50;;;;;;5056329;28;20021;-84
2022/01/16 02:51:44;;;;;;;13.88;8.80;;;6.10;79.60;;;;;;5064505;28;20044;-85
2022/01/16 02:54:10;;;;;;;13.35;8.93;;;6.10;79.50;;;;;;5073332;28;20032;-85
2022/01/16 02:56:37;;;;;;;15.88;10.35;;;6.10;79.50;;;;;;5054814;28;20029;-85
2022/01/16 02:59:03;;;;;;;14.77;9.82;;;6.10;79.50;;;;;;5048148;28;20462;-84
2022/01/16 03:01:29;;;;;;;16.55;9.77;;;6.10;79.50;;;;;;5055379;28;20074;-86
2022/01/16 03:03:54;;;;;;;13.95;8.98;;;6.10;79.50;;;;;;5020386;28;20029;-86
2022/01/16 03:06:20;;;;;;;15.40;10.00;;;6.10;79.40;;;;;;5033365;28;20140;-85
2022/01/16 03:08:46;;;;;;;13.30;9.10;;;6.10;79.50;;;;;;5022597;28;20063;-85
2022/01/16 03:14:12;;;;;;;13.77;9.27;;;6.10;79.50;;;;;;5012983;28;20036;-85
2022/01/16 03:16:41;;;;;;;15.10;10.07;;;6.10;79.50;;;;;;5034861;28;20064;-85
2022/01/16 03:21:54;;;;;;;14.00;9.03;;;6.10;79.50;;;;;;5037871;28;20032;-86
2022/01/16 03:24:44;;;;;;;14.63;9.30;;;6.10;79.50;;;;;;5012096;28;20367;-86
2022/01/16 03:27:11;;;;;;;13.68;9.18;;;6.10;79.70;;;;;;5055479;28;20059;-85
2022/01/16 03:29:39;;;;;;;12.93;8.63;;;6.10;79.50;;;;;;5048427;28;20033;-85
2022/01/16 03:32:07;;;;;;;14.68;9.48;;;6.10;79.60;;;;;;5035562;28;20492;-85
2022/01/16 03:34:33;;;;;;;14.25;8.80;;;6.10;79.60;;;;;;5036261;28;20021;-85
2022/01/16 03:36:59;;;;;;;12.93;9.18;;;6.10;79.50;;;;;;5023454;28;20041;-85
2022/01/16 03:39:25;;;;;;;13.63;8.88;;;6.10;79.60;;;;;;5022487;28;20029;-84
2022/01/16 03:41:51;;;;;;;13.52;9.07;;;6.10;79.50;;;;;;5045695;28;20520;-85
2022/01/16 03:44:19;;;;;;;15.45;9.95;;;6.10;79.50;;;;;;5039070;28;20037;-85
2022/01/16 03:46:45;;;;;;;14.60;9.70;;;6.10;79.50;;;;;;5055242;28;20029;-85
2022/01/16 03:49:17;;;;;;;16.10;10.15;;;6.10;79.50;;;;;;5016484;28;20650;-85
2022/01/16 03:51:46;;;;;;;14.98;10.15;;;6.10;79.50;;;;;;5057171;28;20044;-85
2022/01/16 03:54:15;;;;;;;13.00;8.50;;;6.10;79.50;;;;;;5044470;28;20041;-85
2022/01/16 03:56:42;;;;;;;13.40;8.75;;;6.10;79.50;;;;;;5049189;28;20032;-86
2022/01/16 03:59:09;;;;;;;16.33;9.73;;;6.10;79.50;;;;;;5036563;28;20052;-85
2022/01/16 04:01:35;;;;;;;13.55;9.02;;;6.10;79.50;;;;;;5019638;28;20029;-86
2022/01/16 04:04:01;;;;;;;14.88;10.02;;;6.10;79.50;;;;;;5004127;28;20163;-85
2022/01/16 04:06:27;;;;;;;14.63;9.38;;;6.00;79.50;;;;;;5046577;28;20038;-85
2022/01/16 04:08:54;;;;;;;14.40;9.73;;;6.00;79.50;;;;;;5016429;28;20029;-85
2022/01/16 04:11:24;;;;;;;14.85;9.43;;;6.10;79.50;;;;;;5071814;28;20033;-85
2022/01/16 04:13:53;;;;;;;14.15;8.90;;;6.10;79.50;;;;;;5032598;28;20040;-85
2022/01/16 04:16:21;;;;;;;14.35;9.70;;;6.10;79.50;;;;;;5036630;28;20040;-85
2022/01/16 04:18:53;;;;;;;14.60;9.43;;;6.10;79.50;;;;;;5039949;28;20024;-85
2022/01/16 04:21:20;;;;;;;14.65;9.18;;;6.10;80.10;;;;;;5048350;28;20060;-85
2022/01/16 04:23:47;;;;;;;15.70;9.65;;;6.10;79.50;;;;;;5030809;28;20032;-86
2022/01/16 04:26:13;;;;;;;15.00;9.30;;;6.10;79.50;;;;;;5021723;28;20348;-85
2022/01/16 04:28:39;;;;;;;14.52;9.25;;;6.10;79.50;;;;;;5036299;28;20083;-85
2022/01/16 04:31:05;;;;;;;13.98;9.77;;;6.10;79.50;;;;;;5047680;28;20036;-85
2022/01/16 04:33:31;;;;;;;15.15;9.68;;;6.10;79.50;;;;;;5036598;28;20032;-84
2022/01/16 04:35:56;;;;;;;14.65;9.00;;;6.10;79.50;;;;;;5052324;28;20020;-85
2022/01/16 04:38:22;;;;;;;15.73;9.52;;;6.10;79.50;;;;;;5021247;28;20025;-85
2022/01/16 04:43:52;;;;;;;13.70;9.00;;;6.00;79.50;;;;;;5030745;28;20123;-85
2022/01/16 04:46:27;;;;;;;13.57;8.68;;;6.10;79.50;;;;;;5009236;28;20560;-85
2022/01/16 04:48:54;;;;;;;14.68;9.07;;;6.00;79.50;;;;;;5067293;28;20028;-85
2022/01/16 04:51:21;;;;;;;13.65;8.68;;;6.10;79.60;;;;;;5041003;28;20053;-85
2022/01/16 04:53:47;;;;;;;14.10;9.00;;;6.00;79.50;;;;;;5038669;28;20512;-85
2022/01/16 04:56:13;;;;;;;15.30;9.30;;;6.00;79.50;;;;;;5046014;28;20482;-85
2022/01/16 04:58:40;;;;;;;14.15;8.95;;;6.10;79.60;;;;;;5056963;28;20388;-85
2022/01/16 05:01:07;;;;;;;14.68;9.30;;;6.10;79.60;;;;;;5035358;28;20025;-85
2022/01/16 05:03:34;;;;;;;14.73;9.73;;;6.00;79.50;;;;;;5046820;28;20039;-85
2022/01/16 05:06:00;;;;;;;13.48;9.55;;;6.00;79.50;;;;;;5032297;28;20025;-84
2022/01/16 05:08:28;;;;;;;17.00;10.70;;;6.10;79.60;;;;;;5043068;28;20128;-85
2022/01/16 05:10:55;;;;;;;14.57;9.63;;;6.10;79.60;;;;;;5027011;28;20029;-85
2022/01/16 05:18:36;;;;;;;15.27;9.65;;;6.10;79.60;;;;;;5063937;28;20032;-85
2022/01/16 05:21:05;;;;;;;14.23;9.70;;;6.10;79.50;;;;;;5031924;28;20017;-85
2022/01/16 05:23:32;;;;;;;14.70;10.10;;;6.10;79.60;;;;;;5043395;28;20032;-85
2022/01/16 05:25:59;;;;;;;14.05;9.77;;;6.00;79.50;;;;;;5058589;28;20044;-85
2022/01/16 05:28:25;;;;;;;15.88;9.80;;;6.10;79.60;;;;;;5045114;28;20059;-85
2022/01/16 05:30:51;;;;;;;13.98;9.55;;;6.10;79.60;;;;;;5038854;28;20032;-85
2022/01/16 05:33:17;;;;;;;14.95;9.63;;;6.00;79.50;;;;;;5016986;28;20032;-85
2022/01/16 05:35:43;;;;;;;13.68;9.15;;;6.10;79.50;;;;;;5025796;28;20028;-86
2022/01/16 05:38:10;;;;;;;16.15;9.88;;;6.10;79.60;;;;;;5042935;28;20033;-85
2022/01/16 05:40:37;;;;;;;14.07;9.43;;;6.10;79.60;;;;;;5037090;28;20029;-84
2022/01/16 05:43:03;;;;;;;16.42;10.10;;;6.10;79.50;;;;;;5036356;28;20033;-85
2022/01/16 05:45:29;;;;;;;15.02;10.38;;;6.10;79.50;;;;;;5038245;28;20354;-86
2022/01/16 05:47:55;;;;;;;16.00;10.45;;;6.10;79.50;;;;;;5032951;28;20037;-85
2022/01/16 05:50:22;;;;;;;15.52;10.13;;;6.10;79.60;;;;;;5036474;28;20052;-85
2022/01/16 05:52:49;;;;;;;14.73;10.32;;;6.10;79.60;;;;;;5048789;28;20070;-85
2022/01/16 05:55:15;;;;;;;16.02;10.40;;;6.10;79.50;;;;;;5043495;28;20025;-85
2022/01/16 05:57:41;;;;;;;15.90;10.52;;;6.10;79.60;;;;;;5027089;28;20033;-86
2022/01/16 06:00:09;;;;;;;16.65;10.30;;;6.10;79.60;;;;;;5048070;28;20029;-85
2022/01/16 06:02:36;;;;;;;14.77;10.63;;;6.10;79.50;;;;;;5040951;28;20098;-85
2022/01/16 06:05:03;;;;;;;15.77;9.77;;;6.10;79.60;;;;;;5038883;28;20020;-84
2022/01/16 06:07:28;;;;;;;15.00;10.40;;;6.10;79.60;;;;;;5045324;28;20041;-85
2022/01/16 06:09:55;;;;;;;15.77;10.70;;;6.10;79.50;;;;;;5049231;28;20032;-84
2022/01/16 06:12:21;;;;;;;17.02;10.18;;;6.10;79.50;;;;;;5025447;28;20086;-85
2022/01/16 06:14:47;;;;;;;15.38;10.15;;;6.10;79.50;;;;;;5037844;28;20029;-85
2022/01/16 06:17:13;;;;;;;15.23;11.52;;;6.10;79.50;;;;;;5034396;28;20031;-85
2022/01/16 06:19:39;;;;;;;15.30;10.05;;;6.10;79.50;;;;;;5043461;28;20020;-85
2022/01/16 06:22:05;;;;;;;17.25;11.90;;;6.10;79.50;;;;;;5032269;28;20078;-84
2022/01/16 06:24:31;;;;;;;16.30;11.05;;;6.10;79.60;;;;;;5065015;28;20397;-84
2022/01/16 06:26:57;;;;;;;17.42;11.15;;;6.10;79.50;;;;;;5039233;28;20029;-85
2022/01/16 06:29:23;;;;;;;17.42;11.35;;;6.10;79.60;;;;;;5046089;28;20025;-84
2022/01/16 06:31:49;;;;;;;16.75;11.30;;;6.10;79.50;;;;;;5033157;28;20115;-84
2022/01/16 06:34:15;;;;;;;17.27;10.68;;;6.10;79.50;;;;;;5011915;28;20175;-84
2022/01/16 06:36:40;;;;;;;17.92;11.73;;;6.10;79.50;;;;;;5030915;28;20036;-84
2022/01/16 06:39:09;;;;;;;18.40;11.93;;;6.10;79.50;;;;;;5037691;28;20025;-84
2022/01/16 06:41:36;;;;;;;14.88;10.15;;;6.10;79.50;;;;;;5057350;28;20094;-85
2022/01/16 06:44:02;;;;;;;15.55;10.93;;;6.10;79.60;;;;;;5045451;28;20025;-85
2022/01/16 06:46:28;;;;;;;18.55;12.05;;;6.10;79.50;;;;;;5044457;28;20048;-84
2022/01/16 06:48:54;;;;;;;17.65;11.93;;;6.10;79.50;;;;;;5048028;28;20025;-85
2022/01/16 06:51:21;;;;;;;16.50;11.15;;;6.10;79.50;;;;;;5006068;28;20056;-84
2022/01/16 06:53:48;;;;;;;16.52;11.55;;;6.10;79.50;;;;;;5036620;28;20029;-85
2022/01/16 06:56:17;;;;;;;17.92;12.10;;;6.10;79.50;;;;;;5035189;28;20550;-84
2022/01/16 06:58:46;;;;;;;17.33;11.73;;;6.10;79.50;;;;;;5042805;28;20672;-85
2022/01/16 07:01:13;;;;;;;18.73;12.70;;;6.10;79.50;;;;;;5035689;28;20120;-84
2022/01/16 07:03:40;;;;;;;17.08;11.93;;;6.10;79.50;;;;;;5062494;28;20021;-85
2022/01/16 07:06:06;;;;;;;16.35;11.27;;;6.10;79.50;;;;;;5019089;28;20035;-85
2022/01/16 07:08:32;;;;;;;18.70;12.00;;;6.10;79.50;;;;;;5037198;28;20133;-85
2022/01/16 07:10:59;;;;;;;16.63;11.00;;;6.10;79.50;;;;;;5040076;28;20023;-85
2022/01/16 07:13:26;;;;;;;17.35;11.68;;;6.20;79.60;;;;;;5058866;28;20115;-85
2022/01/16 07:15:52;;;;;;;17.63;11.93;;;6.10;79.50;;;;;;5045330;28;20027;-85
2022/01/16 07:18:19;;;;;;;15.65;11.45;;;6.20;79.50;;;;;;5041940;28;20029;-84
2022/01/16 07:20:45;;;;;;;17.90;11.65;;;6.20;79.60;;;;;;5044420;28;20033;-85
2022/01/16 07:23:13;;;;;;;17.75;11.30;;;6.10;79.50;;;;;;5042917;28;20029;-84
2022/01/16 07:25:39;;;;;;;18.52;12.85;;;6.20;79.50;;;;;;5050473;28;20028;-84
2022/01/16 07:28:05;;;;;;;17.90;12.30;;;6.20;79.60;;;;;;5078013;28;20036;-85
2022/01/16 07:30:32;;;;;;;17.27;11.75;;;6.20;79.60;;;;;;5048111;28;20362;-85
2022/01/16 07:32:58;;;;;;;17.27;11.55;;;6.20;79.60;;;;;;5028471;28;20399;-85
2022/01/16 07:35:23;;;;;;;17.00;12.35;;;6.20;79.50;;;;;;5027612;28;20029;-85
2022/01/16 07:37:51;;;;;;;16.48;11.82;;;6.20;79.50;;;;;;5047802;28;20074;-83
2022/01/16 07:40:20;;;;;;;16.50;12.32;;;6.20;79.50;;;;;;5054532;28;20036;-85
2022/01/16 07:42:46;;;;;;;16.45;11.50;;;6.20;79.50;;;;;;5049018;28;20369;-84
2022/01/16 07:45:12;;;;;;;16.77;11.73;;;6.20;79.50;;;;;;5023099;28;20036;-83
2022/01/16 07:47:38;;;;;;;16.80;12.07;;;6.20;79.50;;;;;;5035442;28;20040;-84
2022/01/16 07:50:06;;;;;;;18.50;12.95;;;6.20;79.50;;;;;;5026388;28;20083;-83
2022/01/16 07:52:32;;;;;;;15.20;11.68;;;6.20;79.50;;;;;;5046714;28;20077;-84
2022/01/16 07:54:58;;;;;;;16.08;11.57;;;6.20;79.50;;;;;;5026024;28;20040;-83
2022/01/16 07:57:24;;;;;;;17.48;12.38;;;6.20;79.50;;;;;;5019141;28;20081;-83
2022/01/16 07:59:50;;;;;;;17.00;11.77;;;6.20;79.50;;;;;;5035969;28;20107;-81
2022/01/16 08:02:17;;;;;;;15.00;10.68;;;6.20;79.50;;;;;;5036127;28;20029;-84
2022/01/16 08:04:43;;;;;;;16.05;11.60;;;6.20;79.50;;;;;;5055966;28;20028;-83
2022/01/16 08:07:10;;;;;;;16.30;11.82;;;6.20;79.50;;;;;;5024933;28;20473;-83
2022/01/16 08:09:40;;;;;;;15.02;11.30;;;6.20;79.50;;;;;;5038044;28;20029;-83
2022/01/16 08:12:07;;;;;;;15.52;11.35;;;6.20;79.60;;;;;;5038057;28;20052;-83
2022/01/16 08:14:33;;;;;;;17.30;11.85;;;6.20;79.50;;;;;;5045159;28;20021;-85
2022/01/16 08:17:00;;;;;;;15.40;10.18;;;6.20;79.50;;;;;;5029922;28;20088;-84
2022/01/16 08:19:27;;;;;;;17.23;12.20;;;6.20;79.50;;;;;;5051012;28;20083;-84
2022/01/16 08:21:54;;;;;;;15.93;11.35;;;6.20;79.50;;;;;;5058233;28;20029;-85
2022/01/16 08:24:20;;;;;;;15.45;11.20;;;6.20;79.50;;;;;;5042132;28;20043;-84
2022/01/16 08:26:46;;;;;;;16.20;11.43;;;6.20;79.50;;;;;;5034676;28;20108;-84
2022/01/16 08:29:13;;;;;;;16.33;11.93;;;6.20;79.50;;;;;;5027219;28;21789;-84
2022/01/16 08:31:39;;;;;;;14.57;11.45;;;6.20;79.50;;;;;;5053984;28;20454;-84
2022/01/16 08:34:05;;;;;;;16.05;12.15;;;6.20;79.50;;;;;;5026958;28;20029;-85
2022/01/16 08:36:31;;;;;;;14.63;11.23;;;6.20;79.50;;;;;;5039025;28;20037;-84
2022/01/16 08:39:00;;;;;;;16.55;11.60;;;6.30;79.50;;;;;;5041181;28;20036;-84
2022/01/16 08:41:26;;;;;;;15.88;11.00;;;6.20;79.50;;;;;;5032068;28;20040;-85
2022/01/16 08:43:52;;;;;;;15.30;11.15;;;6.30;79.50;;;;;;5056225;28;20025;-87
2022/01/16 08:46:18;;;;;;;14.23;10.32;;;6.30;79.50;;;;;;5041528;28;20177;-85
2022/01/16 08:48:44;;;;;;;13.27;10.23;;;6.30;79.60;;;;;;5041612;28;20027;-85
2022/01/16 08:51:10;;;;;;;13.43;10.15;;;6.30;79.50;;;;;;5038311;28;20127;-86
2022/01/16 08:53:36;;;;;;;13.90;10.48;;;6.30;79.50;;;;;;5039239;28;20128;-84
2022/01/16 08:56:02;;;;;;;13.02;9.63;;;6.30;79.50;;;;;;5041498;28;20033;-83
2022/01/16 08:58:31;;;;;;;14.68;10.80;;;6.30;79.50;;;;;;5064144;28;20033;-84
2022/01/16 09:00:59;;;;;;;14.93;10.35;;;6.30;79.60;;;;;;5018224;28;20029;-85
2022/01/16 09:03:25;;;;;;;14.48;9.90;;;6.30;79.50;;;;;;5032711;28;20532;-84
2022/01/16 09:05:52;;;;;;;14.40;11.13;;;6.30;79.50;;;;;;5047386;28;20025;-84
2022/01/16 09:08:19;;;;;;;14.32;10.65;;;6.30;79.50;;;;;;5037571;28;20048;-86
2022/01/16 09:10:46;;;;;;;13.30;10.10;;;6.30;79.50;;;;;;5022641;28;20021;-85
2022/01/16 09:13:15;;;;;;;14.60;11.05;;;6.30;79.50;;;;;;5032698;28;20067;-84
2022/01/16 09:15:44;;;;;;;14.02;10.70;;;6.40;79.60;;;;;;5037245;28;20033;-87
2022/01/16 09:18:10;;;;;;;14.43;11.15;;;6.30;79.50;;;;;;5031482;28;20056;-85
2022/01/16 09:20:36;;;;;;;14.38;10.68;;;6.40;79.60;;;;;;5031668;28;20013;-86
2022/01/16 09:23:02;;;;;;;14.93;10.27;;;6.40;79.60;;;;;;5047128;28;20037;-84
2022/01/16 09:25:28;;;;;;;15.90;11.15;;;6.40;79.60;;;;;;5037830;28;20120;-85
2022/01/16 09:27:54;;;;;;;14.63;10.48;;;6.40;79.60;;;;;;5040140;28;20032;-85
2022/01/16 09:30:22;;;;;;;13.32;10.15;;;6.40;79.60;;;;;;5022989;28;20028;-84
2022/01/16 09:32:48;;;;;;;12.10;9.90;;;6.40;79.60;;;;;;5058379;28;20026;-87
2022/01/16 09:35:15;;;;;;;14.30;10.82;;;6.40;79.60;;;;;;5049637;28;20500;-86
2022/01/16 09:37:41;;;;;;;13.35;9.77;;;6.40;79.60;;;;;;5025573;28;20032;-86
2022/01/16 09:40:09;;;;;;;13.18;10.40;;;6.40;79.60;;;;;;5034511;28;20027;-86
2022/01/16 09:42:35;;;;;;;13.15;9.95;;;6.40;79.70;;;;;;5042986;28;20067;-84
2022/01/16 09:45:05;;;;;;;13.25;9.70;;;6.50;79.70;;;;;;5037018;28;20127;-84
2022/01/16 09:47:31;;;;;;;14.30;10.60;;;6.40;79.60;;;;;;5042024;28;20040;-84
2022/01/16 09:49:56;;;;;;;14.10;10.35;;;6.50;79.70;;;;;;5050316;28;20033;-85
2022/01/16 09:52:22;;;;;;;15.05;10.05;;;6.50;79.70;;;;;;5038131;28;20189;-84
2022/01/16 09:54:49;;;;;;;14.20;9.98;;;6.50;79.70;;;;;;5044435;28;20021;-82
2022/01/16 09:57:15;;;;;;;14.32;10.70;;;6.50;79.70;;;;;;5049166;28;20045;-85
2022/01/16 09:59:44;;;;;;;13.35;10.40;;;6.50;79.70;;;;;;5047500;28;20453;-84
2022/01/16 10:02:09;;;;;;;14.85;10.60;;;6.60;79.70;;;;;;5026405;28;20040;-84
2022/01/16 10:04:41;;;;;;;14.38;10.15;;;6.60;79.70;;;;;;5031582;28;20036;-82
2022/01/16 10:07:14;;;;;;;14.18;9.93;;;6.60;79.70;;;;;;5038810;28;20037;-85
2022/01/16 10:09:46;;;;;;;13.75;9.98;;;6.60;79.70;;;;;;5050994;28;20052;-82
2022/01/16 10:12:19;;;;;;;14.95;10.50;;;6.60;79.70;;;;;;5052148;28;20112;-84
2022/01/16 10:14:49;;;;;;;13.88;10.27;;;6.60;79.70;;;;;;5049486;28;20053;-83
2022/01/16 10:17:21;;;;;;;13.93;10.55;;;6.70;79.80;;;;;;5051497;28;20442;-85
2022/01/16 10:20:05;;;;;;;15.32;10.60;;;6.70;79.80;;;;;;5036850;28;20023;-85
2022/01/16 10:22:46;;;;;;;14.27;10.18;;;6.70;79.90;;;;;;5036838;28;20032;-84
2022/01/16 10:25:14;;;;;;;15.48;10.48;;;6.70;79.80;;;;;;5045587;28;20035;-85
2022/01/16 10:27:45;;;;;;;14.63;9.95;;;6.70;79.70;;;;;;5051228;28;20068;-86
2022/01/16 10:30:14;;;;;;;15.90;10.73;;;6.70;79.80;;;;;;5058916;28;20040;-83
2022/01/16 10:32:45;;;;;;;15.88;10.27;;;6.80;79.80;;;;;;5040658;28;20066;-84
2022/01/16 10:35:24;;;;;;;15.30;10.57;;;6.70;79.80;;;;;;5034385;28;20102;-84
2022/01/16 10:37:57;;;;;;;14.00;10.68;;;6.80;79.80;;;;;;5022166;28;20032;-84
2022/01/16 10:40:32;;;;;;;14.00;10.60;;;6.80;79.80;;;;;;5040505;28;20061;-84
2022/01/16 10:43:03;;;;;;;15.02;10.38;;;6.80;79.80;;;;;;5040004;28;20025;-84
2022/01/16 10:45:30;;;;;;;15.25;11.40;;;6.80;79.70;;;;;;5033727;28;20033;-85
2022/01/16 10:47:58;;;;;;;14.20;10.50;;;6.80;79.70;;;;;;5050144;28;20044;-85
2022/01/16 10:50:44;;;;;;;15.65;11.15;;;6.90;79.80;;;;;;5028218;28;20573;-84
2022/01/16 10:53:16;;;;;;;16.63;11.93;;;6.90;79.90;;;;;;5042650;28;20436;-85
2022/01/16 10:55:56;;;;;;;14.55;10.95;;;6.90;79.70;;;;;;5047280;28;20412;-85
2022/01/16 10:58:40;;;;;;;15.07;10.25;;;6.90;79.80;;;;;;5045600;28;20035;-84
2022/01/16 11:01:13;;;;;;;15.80;10.90;;;6.90;79.70;;;;;;5042319;28;20021;-85
2022/01/16 11:03:41;;;;;;;14.15;9.80;;;6.90;79.70;;;;;;5058426;28;20036;-83
2022/01/16 11:06:07;;;;;;;16.58;11.00;;;7.00;79.70;;;;;;5046598;28;20100;-85
2022/01/16 11:08:34;;;;;;;16.35;11.05;;;7.00;79.70;;;;;;5024724;28;20056;-84
2022/01/16 11:11:00;;;;;;;17.17;11.70;;;7.00;79.70;;;;;;5067720;28;20016;-84
2022/01/16 11:13:30;;;;;;;16.95;11.73;;;7.00;79.70;;;;;;5035863;28;20459;-84
2022/01/16 11:15:58;;;;;;;16.73;12.20;;;7.00;80.30;;;;;;5050170;28;20025;-84
2022/01/16 11:18:26;;;;;;;16.42;11.35;;;7.10;79.70;;;;;;5020281;28;20029;-92
2022/01/16 11:21:08;;;;;;;18.10;11.55;;;7.10;79.70;;;;;;5020245;28;20020;-90
2022/01/16 11:26:10;;;;;;;17.10;11.73;;;7.10;79.60;;;;;;5064331;28;20056;-89
2022/01/16 11:28:37;;;;;;;16.77;11.98;;;7.20;79.70;;;;;;5022222;28;20044;-88
2022/01/16 11:31:05;;;;;;;17.77;12.40;;;7.10;79.60;;;;;;5035182;28;20025;-87
2022/01/16 11:33:33;;;;;;;17.63;12.43;;;7.20;79.70;;;;;;5041160;28;20077;-87
2022/01/16 11:36:06;;;;;;;19.00;12.93;;;7.20;79.70;;;;;;5043167;28;20504;-86
2022/01/16 11:38:40;;;;;;;17.08;11.57;;;7.20;79.70;;;;;;5041058;28;20037;-87
2022/01/16 11:41:18;;;;;;;18.33;13.48;;;7.20;79.70;;;;;;5035295;28;20060;-88
2022/01/16 11:43:52;;;;;;;17.58;12.48;;;7.20;79.60;;;;;;5028175;28;20040;-86
2022/01/16 11:46:21;;;;;;;19.83;13.52;;;7.30;79.70;;;;;;5042069;28;20145;-87
2022/01/16 11:48:51;;;;;;;17.05;12.35;;;7.20;79.60;;;;;;5034699;28;20033;-88
2022/01/16 11:51:37;;;;;;;18.55;12.45;;;7.20;79.60;;;;;;5044261;28;20049;-88
2022/01/16 11:54:11;;;;;;;20.55;14.07;;;7.30;79.70;;;;;;5033347;28;20504;-87
2022/01/16 11:56:40;;;;;;;18.92;13.40;;;7.30;79.60;;;;;;5044453;28;20484;-86
2022/01/16 11:59:13;;;;;;;19.83;12.95;;;7.30;79.60;;;;;;5030139;28;20059;-87
2022/01/16 12:01:54;;;;;;;18.73;13.35;;;7.30;79.60;;;;;;5040963;28;20021;-80
2022/01/16 12:04:29;;;;;;;19.02;14.05;;;7.30;79.60;;;;;;5019919;28;20055;-82
2022/01/16 12:06:58;;;;;;;;;;;7.30;79.60;;;;;;5040194;28;20116;-82
2022/01/16 12:12:13;;;;;;;17.55;11.45;;;7.30;79.50;;;;;;5056860;28;20029;-81
2022/01/16 12:15:07;;;;;;;19.85;13.85;;;7.40;79.60;;;;;;5026470;28;20021;-83
2022/01/16 12:20:11;;;;;;;19.30;13.48;;;7.30;79.60;;;;;;5042681;28;20030;-82
2022/01/16 12:23:07;;;;;;;19.63;12.57;;;7.40;79.60;;;;;;5050924;28;20029;-82
2022/01/16 12:25:52;;;;;;;19.95;12.32;;;7.40;79.70;;;;;;5034177;28;20483;-83
2022/01/16 12:28:22;;;;;;;20.25;14.13;;;7.40;79.60;;;;;;5038025;28;20090;-83
2022/01/16 12:30:59;;;;;;;20.25;13.15;;;7.40;79.50;;;;;;5042876;28;20033;-83
2022/01/16 12:33:28;;;;;;;22.00;13.68;;;7.40;79.60;;;;;;5018090;28;20033;-82
2022/01/16 12:35:58;;;;;;;23.60;13.95;;;7.40;79.50;;;;;;5032805;28;20052;-83
2022/01/16 12:38:28;;;;;;;22.83;13.65;;;7.50;79.60;;;;;;5033331;28;20040;-83
2022/01/16 12:41:07;;;;;;;23.17;14.32;;;7.50;80.20;;;;;;5001800;28;20025;-83
2022/01/16 12:43:44;;;;;;;19.90;13.02;;;7.50;79.60;;;;;;5034643;28;20636;-83
2022/01/16 12:46:16;;;;;;;20.35;13.43;;;7.50;79.50;;;;;;5038374;28;20025;-83
2022/01/16 12:48:53;;;;;;;22.58;14.45;;;7.50;79.50;;;;;;5035839;28;20108;-84
2022/01/16 12:51:23;;;;;;;22.25;13.27;;;7.50;79.60;;;;;;5029168;28;20094;-86
2022/01/16 12:53:52;;;;;;;22.77;14.00;;;7.50;79.50;;;;;;5047316;28;20119;-82
2022/01/16 12:56:28;;;;;;;21.90;13.73;;;7.60;79.50;;;;;;5030782;28;20128;-85
2022/01/16 12:59:11;;;;;;;20.27;12.57;;;7.60;79.60;;;;;;5050346;28;20056;-83
2022/01/16 13:01:51;;;;;;;22.90;14.20;;;7.60;79.60;;;;;;5036698;28;20035;-84
2022/01/16 13:04:19;;;;;;;20.45;12.40;;;7.60;79.50;;;;;;5026272;28;20025;-84
2022/01/16 13:06:45;;;;;;;21.05;14.05;;;7.60;79.50;;;;;;5068433;28;20124;-83
2022/01/16 13:09:11;;;;;;;22.77;13.52;;;7.60;79.50;;;;;;5034747;28;20121;-84
2022/01/16 13:11:59;;;;;;;21.80;13.70;;;7.60;79.50;;;;;;5039670;28;20033;-84
2022/01/16 13:14:30;;;;;;;22.08;13.75;;;7.70;79.50;;;;;;5068954;28;20038;-84
2022/01/16 13:16:59;;;;;;;20.65;12.90;;;7.70;79.50;;;;;;5044702;28;20066;-84
2022/01/16 13:19:37;;;;;;;23.08;13.85;;;7.70;79.50;;;;;;5045448;28;20028;-83
2022/01/16 13:22:11;;;;;;;22.52;14.30;;;7.70;79.50;;;;;;5051701;28;20025;-84
2022/01/16 13:24:47;;;;;;;21.55;12.88;;;7.70;79.40;;;;;;5051987;28;20382;-83
2022/01/16 13:27:16;;;;;;;22.52;13.57;;;7.70;79.50;;;;;;5047964;28;20090;-83
2022/01/16 13:29:44;;;;;;;20.13;12.50;;;7.70;79.40;;;;;;5076465;28;20029;-84
2022/01/16 13:32:13;;;;;;;21.50;14.13;;;7.80;79.50;;;;;;5043398;28;20078;-84
2022/01/16 13:34:49;;;;;;;20.98;12.80;;;7.80;79.40;;;;;;5019600;28;20021;-84